sensor_id;sensor_type;location;lat;lon;timestamp;P1;durP1;ratioP1;P2;durP2;ratioP2
37777;SDS011;23615;51.506;7.678;2022-08-19T00:02:11;4.32;;;3.95;;
37777;SDS011;23615;51.506;7.678;2022-08-19T00:04:36;3.85;;;3.45;;
37777;SDS011;23615;51.506;7.678;2022-08-19T00:07:02;4.25;;;3.85;;
37777;SDS011;23615;51.506;7.678;2022-08-19T00:09:29;4.47;;;3.80;;
37777;SDS011;23615;51.506;7.678;2022-08-19T00:11:55;5.10;;;4.60;;
37777;SDS011;23615;51.506;7.678;2022-08-19T00:14:22;4.60;;;4.15;;
37777;SDS011;23615;51.506;7.678;2022-08-19T00:16:49;3.90;;;3.55;;
37777;SDS011;23615;51.506;7.678;2022-08-19T00:19:16;6.22;;;5.55;;
37777;SDS011;23615;51.506;7.678;2022-08-19T00:21:42;4.32;;;3.92;;
37777;SDS011;23615;51.506;7.678;2022-08-19T00:24:08;4.05;;;3.75;;
37777;SDS011;23615;51.506;7.678;2022-08-19T00:26:35;4.97;;;4.40;;
37777;SDS011;23615;51.506;7.678;2022-08-19T00:29:02;5.90;;;5.30;;
37777;SDS011;23615;51.506;7.678;2022-08-19T00:31:29;5.03;;;4.50;;
37777;SDS011;23615;51.506;7.678;2022-08-19T00:33:55;6.38;;;5.55;;
37777;SDS011;23615;51.506;7.678;2022-08-19T00:36:21;7.45;;;6.40;;
37777;SDS011;23615;51.506;7.678;2022-08-19T00:38:46;5.53;;;5.13;;
37777;SDS011;23615;51.506;7.678;2022-08-19T00:41:13;6.03;;;5.43;;
37777;SDS011;23615;51.506;7.678;2022-08-19T00:43:39;6.30;;;5.70;;
37777;SDS011;23615;51.506;7.678;2022-08-19T00:46:07;8.82;;;6.47;;
37777;SDS011;23615;51.506;7.678;2022-08-19T00:48:33;8.18;;;6.80;;
37777;SDS011;23615;51.506;7.678;2022-08-19T00:50:59;7.13;;;6.43;;
37777;SDS011;23615;51.506;7.678;2022-08-19T00:53:26;6.63;;;5.75;;
37777;SDS011;23615;51.506;7.678;2022-08-19T00:55:54;7.80;;;7.00;;
37777;SDS011;23615;51.506;7.678;2022-08-19T00:58:23;7.20;;;6.43;;
37777;SDS011;23615;51.506;7.678;2022-08-19T01:00:52;7.20;;;6.32;;
37777;SDS011;23615;51.506;7.678;2022-08-19T01:03:18;8.10;;;6.78;;
37777;SDS011;23615;51.506;7.678;2022-08-19T01:05:45;7.88;;;6.63;;
37777;SDS011;23615;51.506;7.678;2022-08-19T01:08:15;7.95;;;7.15;;
37777;SDS011;23615;51.506;7.678;2022-08-19T01:10:46;7.97;;;6.93;;
37777;SDS011;23615;51.506;7.678;2022-08-19T01:13:21;6.70;;;5.90;;
37777;SDS011;23615;51.506;7.678;2022-08-19T01:15:54;9.40;;;7.05;;
37777;SDS011;23615;51.506;7.678;2022-08-19T01:18:21;7.45;;;6.65;;
37777;SDS011;23615;51.506;7.678;2022-08-19T01:20:48;10.90;;;7.43;;
37777;SDS011;23615;51.506;7.678;2022-08-19T01:23:14;9.50;;;8.20;;
37777;SDS011;23615;51.506;7.678;2022-08-19T01:25:47;8.30;;;7.28;;
37777;SDS011;23615;51.506;7.678;2022-08-19T01:28:25;10.52;;;7.93;;
37777;SDS011;23615;51.506;7.678;2022-08-19T01:30:52;13.90;;;11.70;;
37777;SDS011;23615;51.506;7.678;2022-08-19T01:33:19;9.88;;;8.77;;
37777;SDS011;23615;51.506;7.678;2022-08-19T01:35:46;11.55;;;9.13;;
37777;SDS011;23615;51.506;7.678;2022-08-19T01:38:19;10.32;;;8.68;;
37777;SDS011;23615;51.506;7.678;2022-08-19T01:40:47;10.02;;;8.25;;
37777;SDS011;23615;51.506;7.678;2022-08-19T01:43:12;10.43;;;9.25;;
37777;SDS011;23615;51.506;7.678;2022-08-19T01:45:38;14.35;;;11.10;;
37777;SDS011;23615;51.506;7.678;2022-08-19T01:48:05;10.60;;;8.73;;
37777;SDS011;23615;51.506;7.678;2022-08-19T01:50:31;9.20;;;7.88;;
37777;SDS011;23615;51.506;7.678;2022-08-19T01:52:57;9.63;;;8.65;;
37777;SDS011;23615;51.506;7.678;2022-08-19T01:55:24;8.30;;;7.45;;
37777;SDS011;23615;51.506;7.678;2022-08-19T01:57:52;9.57;;;8.57;;
37777;SDS011;23615;51.506;7.678;2022-08-19T02:00:23;9.75;;;7.97;;
37777;SDS011;23615;51.506;7.678;2022-08-19T02:02:52;8.70;;;7.50;;
37777;SDS011;23615;51.506;7.678;2022-08-19T02:05:18;9.85;;;8.25;;
37777;SDS011;23615;51.506;7.678;2022-08-19T02:07:45;9.93;;;8.82;;
37777;SDS011;23615;51.506;7.678;2022-08-19T02:10:12;10.23;;;8.18;;
37777;SDS011;23615;51.506;7.678;2022-08-19T02:12:43;9.20;;;7.60;;
37777;SDS011;23615;51.506;7.678;2022-08-19T02:15:08;10.55;;;7.47;;
37777;SDS011;23615;51.506;7.678;2022-08-19T02:17:34;9.75;;;8.23;;
37777;SDS011;23615;51.506;7.678;2022-08-19T02:20:00;11.93;;;9.82;;
37777;SDS011;23615;51.506;7.678;2022-08-19T02:22:26;17.92;;;13.75;;
37777;SDS011;23615;51.506;7.678;2022-08-19T02:24:52;16.45;;;12.52;;
37777;SDS011;23615;51.506;7.678;2022-08-19T02:27:18;15.20;;;11.55;;
37777;SDS011;23615;51.506;7.678;2022-08-19T02:29:43;13.40;;;10.93;;
37777;SDS011;23615;51.506;7.678;2022-08-19T02:32:11;14.60;;;11.32;;
37777;SDS011;23615;51.506;7.678;2022-08-19T02:34:36;13.32;;;11.05;;
37777;SDS011;23615;51.506;7.678;2022-08-19T02:37:01;10.70;;;9.25;;
37777;SDS011;23615;51.506;7.678;2022-08-19T02:39:27;9.63;;;8.15;;
37777;SDS011;23615;51.506;7.678;2022-08-19T02:41:52;11.43;;;8.27;;
37777;SDS011;23615;51.506;7.678;2022-08-19T02:44:18;10.00;;;8.07;;
37777;SDS011;23615;51.506;7.678;2022-08-19T02:46:44;12.43;;;10.20;;
37777;SDS011;23615;51.506;7.678;2022-08-19T02:49:11;10.50;;;9.30;;
37777;SDS011;23615;51.506;7.678;2022-08-19T02:51:37;12.20;;;10.63;;
37777;SDS011;23615;51.506;7.678;2022-08-19T02:54:05;10.30;;;8.85;;
37777;SDS011;23615;51.506;7.678;2022-08-19T02:56:33;10.50;;;8.60;;
37777;SDS011;23615;51.506;7.678;2022-08-19T02:59:00;10.88;;;8.02;;
37777;SDS011;23615;51.506;7.678;2022-08-19T03:01:30;10.60;;;9.32;;
37777;SDS011;23615;51.506;7.678;2022-08-19T03:03:58;12.60;;;9.50;;
37777;SDS011;23615;51.506;7.678;2022-08-19T03:06:25;12.52;;;9.35;;
37777;SDS011;23615;51.506;7.678;2022-08-19T03:08:52;13.10;;;11.05;;
37777;SDS011;23615;51.506;7.678;2022-08-19T03:11:25;15.02;;;12.18;;
37777;SDS011;23615;51.506;7.678;2022-08-19T03:13:51;16.98;;;12.93;;
37777;SDS011;23615;51.506;7.678;2022-08-19T03:16:18;19.05;;;14.07;;
37777;SDS011;23615;51.506;7.678;2022-08-19T03:18:45;22.35;;;15.80;;
37777;SDS011;23615;51.506;7.678;2022-08-19T03:21:14;23.75;;;17.67;;
37777;SDS011;23615;51.506;7.678;2022-08-19T03:23:41;21.10;;;14.52;;
37777;SDS011;23615;51.506;7.678;2022-08-19T03:26:07;18.60;;;13.35;;
37777;SDS011;23615;51.506;7.678;2022-08-19T03:28:32;14.90;;;10.98;;
37777;SDS011;23615;51.506;7.678;2022-08-19T03:31:02;12.95;;;9.57;;
37777;SDS011;23615;51.506;7.678;2022-08-19T03:33:30;11.70;;;8.80;;
37777;SDS011;23615;51.506;7.678;2022-08-19T03:36:04;12.82;;;9.50;;
37777;SDS011;23615;51.506;7.678;2022-08-19T03:38:33;12.82;;;10.63;;
37777;SDS011;23615;51.506;7.678;2022-08-19T03:41:04;15.00;;;10.95;;
37777;SDS011;23615;51.506;7.678;2022-08-19T03:43:31;13.77;;;9.90;;
37777;SDS011;23615;51.506;7.678;2022-08-19T03:46:06;13.10;;;9.57;;
37777;SDS011;23615;51.506;7.678;2022-08-19T03:48:40;11.20;;;8.90;;
37777;SDS011;23615;51.506;7.678;2022-08-19T03:51:06;14.18;;;10.73;;
37777;SDS011;23615;51.506;7.678;2022-08-19T03:53:34;11.85;;;9.73;;
37777;SDS011;23615;51.506;7.678;2022-08-19T03:56:00;11.50;;;9.85;;
37777;SDS011;23615;51.506;7.678;2022-08-19T03:58:26;12.75;;;9.35;;
37777;SDS011;23615;51.506;7.678;2022-08-19T04:00:54;13.27;;;9.95;;
37777;SDS011;23615;51.506;7.678;2022-08-19T04:03:23;13.73;;;9.95;;
37777;SDS011;23615;51.506;7.678;2022-08-19T04:05:50;13.00;;;9.90;;
37777;SDS011;23615;51.506;7.678;2022-08-19T04:08:15;11.55;;;9.10;;
37777;SDS011;23615;51.506;7.678;2022-08-19T04:10:43;9.70;;;8.00;;
37777;SDS011;23615;51.506;7.678;2022-08-19T04:13:09;11.82;;;9.82;;
37777;SDS011;23615;51.506;7.678;2022-08-19T04:15:38;12.60;;;9.40;;
37777;SDS011;23615;51.506;7.678;2022-08-19T04:18:06;16.55;;;12.48;;
37777;SDS011;23615;51.506;7.678;2022-08-19T04:20:33;18.55;;;14.40;;
37777;SDS011;23615;51.506;7.678;2022-08-19T04:23:03;21.30;;;15.13;;
37777;SDS011;23615;51.506;7.678;2022-08-19T04:25:28;19.70;;;13.57;;
37777;SDS011;23615;51.506;7.678;2022-08-19T04:28:00;18.83;;;13.32;;
37777;SDS011;23615;51.506;7.678;2022-08-19T04:30:25;17.38;;;13.02;;
37777;SDS011;23615;51.506;7.678;2022-08-19T04:32:50;14.98;;;11.93;;
37777;SDS011;23615;51.506;7.678;2022-08-19T04:35:16;16.33;;;12.05;;
37777;SDS011;23615;51.506;7.678;2022-08-19T04:37:41;15.95;;;11.95;;
37777;SDS011;23615;51.506;7.678;2022-08-19T04:40:06;13.95;;;10.93;;
37777;SDS011;23615;51.506;7.678;2022-08-19T04:42:51;13.27;;;10.20;;
37777;SDS011;23615;51.506;7.678;2022-08-19T04:45:16;12.82;;;10.48;;
37777;SDS011;23615;51.506;7.678;2022-08-19T04:47:42;14.27;;;10.68;;
37777;SDS011;23615;51.506;7.678;2022-08-19T04:50:09;14.05;;;11.45;;
37777;SDS011;23615;51.506;7.678;2022-08-19T04:52:36;14.95;;;10.98;;
37777;SDS011;23615;51.506;7.678;2022-08-19T04:55:02;20.70;;;16.02;;
37777;SDS011;23615;51.506;7.678;2022-08-19T04:57:28;20.50;;;15.90;;
37777;SDS011;23615;51.506;7.678;2022-08-19T04:59:53;21.92;;;16.20;;
37777;SDS011;23615;51.506;7.678;2022-08-19T05:02:20;22.02;;;16.23;;
37777;SDS011;23615;51.506;7.678;2022-08-19T05:04:47;28.40;;;19.50;;
37777;SDS011;23615;51.506;7.678;2022-08-19T05:07:13;22.92;;;17.20;;
37777;SDS011;23615;51.506;7.678;2022-08-19T05:09:38;21.77;;;15.70;;
37777;SDS011;23615;51.506;7.678;2022-08-19T05:12:04;22.77;;;18.02;;
37777;SDS011;23615;51.506;7.678;2022-08-19T05:14:30;20.70;;;16.42;;
37777;SDS011;23615;51.506;7.678;2022-08-19T05:16:56;18.10;;;13.02;;
37777;SDS011;23615;51.506;7.678;2022-08-19T05:19:21;16.27;;;12.30;;
37777;SDS011;23615;51.506;7.678;2022-08-19T05:22:05;14.23;;;11.80;;
37777;SDS011;23615;51.506;7.678;2022-08-19T05:24:49;20.77;;;15.88;;
37777;SDS011;23615;51.506;7.678;2022-08-19T05:27:14;21.15;;;17.38;;
37777;SDS011;23615;51.506;7.678;2022-08-19T05:29:39;25.38;;;18.13;;
37777;SDS011;23615;51.506;7.678;2022-08-19T05:32:06;22.65;;;17.73;;
37777;SDS011;23615;51.506;7.678;2022-08-19T05:34:35;24.88;;;18.60;;
37777;SDS011;23615;51.506;7.678;2022-08-19T05:37:03;25.55;;;18.23;;
37777;SDS011;23615;51.506;7.678;2022-08-19T05:39:30;25.00;;;17.38;;
37777;SDS011;23615;51.506;7.678;2022-08-19T05:41:58;26.90;;;18.80;;
37777;SDS011;23615;51.506;7.678;2022-08-19T05:44:31;24.38;;;18.85;;
37777;SDS011;23615;51.506;7.678;2022-08-19T05:46:59;22.48;;;16.90;;
37777;SDS011;23615;51.506;7.678;2022-08-19T05:49:25;21.48;;;17.08;;
37777;SDS011;23615;51.506;7.678;2022-08-19T05:51:52;23.38;;;18.35;;
37777;SDS011;23615;51.506;7.678;2022-08-19T05:54:18;24.42;;;17.30;;
37777;SDS011;23615;51.506;7.678;2022-08-19T05:56:44;25.00;;;18.00;;
37777;SDS011;23615;51.506;7.678;2022-08-19T05:59:13;24.40;;;17.75;;
37777;SDS011;23615;51.506;7.678;2022-08-19T06:01:40;22.15;;;16.10;;
37777;SDS011;23615;51.506;7.678;2022-08-19T06:04:06;22.58;;;14.75;;
37777;SDS011;23615;51.506;7.678;2022-08-19T06:06:32;19.55;;;15.02;;
37777;SDS011;23615;51.506;7.678;2022-08-19T06:08:59;19.88;;;14.10;;
37777;SDS011;23615;51.506;7.678;2022-08-19T06:11:33;21.98;;;17.35;;
37777;SDS011;23615;51.506;7.678;2022-08-19T06:14:07;24.95;;;18.50;;
37777;SDS011;23615;51.506;7.678;2022-08-19T06:16:35;26.40;;;17.88;;
37777;SDS011;23615;51.506;7.678;2022-08-19T06:24:58;23.58;;;17.90;;
37777;SDS011;23615;51.506;7.678;2022-08-19T06:27:23;24.55;;;17.42;;
37777;SDS011;23615;51.506;7.678;2022-08-19T06:29:49;25.52;;;18.30;;
37777;SDS011;23615;51.506;7.678;2022-08-19T06:32:15;24.42;;;17.25;;
37777;SDS011;23615;51.506;7.678;2022-08-19T06:34:42;26.20;;;19.55;;
37777;SDS011;23615;51.506;7.678;2022-08-19T06:37:07;19.95;;;15.95;;
37777;SDS011;23615;51.506;7.678;2022-08-19T06:39:35;21.52;;;15.13;;
37777;SDS011;23615;51.506;7.678;2022-08-19T06:42:04;27.58;;;18.40;;
37777;SDS011;23615;51.506;7.678;2022-08-19T06:44:32;25.83;;;18.25;;
37777;SDS011;23615;51.506;7.678;2022-08-19T06:47:04;23.90;;;16.83;;
37777;SDS011;23615;51.506;7.678;2022-08-19T06:49:31;22.60;;;17.10;;
37777;SDS011;23615;51.506;7.678;2022-08-19T06:51:57;25.70;;;18.13;;
37777;SDS011;23615;51.506;7.678;2022-08-19T06:54:23;21.75;;;16.42;;
37777;SDS011;23615;51.506;7.678;2022-08-19T06:56:49;23.60;;;17.15;;
37777;SDS011;23615;51.506;7.678;2022-08-19T06:59:16;23.92;;;17.70;;
37777;SDS011;23615;51.506;7.678;2022-08-19T07:01:45;24.38;;;18.30;;
37777;SDS011;23615;51.506;7.678;2022-08-19T07:04:13;26.38;;;16.83;;
37777;SDS011;23615;51.506;7.678;2022-08-19T07:06:40;25.10;;;17.58;;
37777;SDS011;23615;51.506;7.678;2022-08-19T07:09:06;25.80;;;17.55;;
37777;SDS011;23615;51.506;7.678;2022-08-19T07:11:33;21.77;;;15.82;;
37777;SDS011;23615;51.506;7.678;2022-08-19T07:13:59;24.25;;;16.35;;
37777;SDS011;23615;51.506;7.678;2022-08-19T07:16:25;22.63;;;15.10;;
37777;SDS011;23615;51.506;7.678;2022-08-19T07:18:51;21.38;;;15.60;;
37777;SDS011;23615;51.506;7.678;2022-08-19T07:21:18;17.38;;;13.30;;
37777;SDS011;23615;51.506;7.678;2022-08-19T07:23:49;21.13;;;16.08;;
37777;SDS011;23615;51.506;7.678;2022-08-19T07:28:46;21.75;;;14.35;;
37777;SDS011;23615;51.506;7.678;2022-08-19T07:31:13;20.50;;;14.65;;
37777;SDS011;23615;51.506;7.678;2022-08-19T07:33:43;23.13;;;16.42;;
37777;SDS011;23615;51.506;7.678;2022-08-19T07:36:09;18.58;;;15.10;;
37777;SDS011;23615;51.506;7.678;2022-08-19T07:38:37;18.33;;;13.10;;
37777;SDS011;23615;51.506;7.678;2022-08-19T07:41:05;20.98;;;14.98;;
37777;SDS011;23615;51.506;7.678;2022-08-19T07:43:31;21.38;;;15.40;;
37777;SDS011;23615;51.506;7.678;2022-08-19T07:45:57;18.25;;;14.05;;
37777;SDS011;23615;51.506;7.678;2022-08-19T07:48:23;17.13;;;13.07;;
37777;SDS011;23615;51.506;7.678;2022-08-19T07:50:51;17.77;;;13.15;;
37777;SDS011;23615;51.506;7.678;2022-08-19T07:53:17;16.98;;;12.57;;
37777;SDS011;23615;51.506;7.678;2022-08-19T07:55:43;17.10;;;11.98;;
37777;SDS011;23615;51.506;7.678;2022-08-19T07:58:11;13.27;;;9.68;;
37777;SDS011;23615;51.506;7.678;2022-08-19T08:00:38;13.15;;;9.60;;
37777;SDS011;23615;51.506;7.678;2022-08-19T08:03:03;16.63;;;11.50;;
37777;SDS011;23615;51.506;7.678;2022-08-19T08:05:29;17.00;;;13.88;;
37777;SDS011;23615;51.506;7.678;2022-08-19T08:08:13;17.42;;;12.30;;
37777;SDS011;23615;51.506;7.678;2022-08-19T08:10:58;17.70;;;11.80;;
37777;SDS011;23615;51.506;7.678;2022-08-19T08:13:24;16.77;;;11.10;;
37777;SDS011;23615;51.506;7.678;2022-08-19T08:15:49;12.55;;;9.60;;
37777;SDS011;23615;51.506;7.678;2022-08-19T08:18:15;12.57;;;9.85;;
37777;SDS011;23615;51.506;7.678;2022-08-19T08:20:40;10.98;;;9.00;;
37777;SDS011;23615;51.506;7.678;2022-08-19T08:23:05;12.02;;;8.90;;
37777;SDS011;23615;51.506;7.678;2022-08-19T08:25:49;12.45;;;9.07;;
37777;SDS011;23615;51.506;7.678;2022-08-19T08:28:16;12.60;;;10.00;;
37777;SDS011;23615;51.506;7.678;2022-08-19T08:30:43;21.65;;;12.65;;
37777;SDS011;23615;51.506;7.678;2022-08-19T08:33:10;12.88;;;11.48;;
37777;SDS011;23615;51.506;7.678;2022-08-19T08:35:35;21.40;;;13.07;;
37777;SDS011;23615;51.506;7.678;2022-08-19T08:38:01;14.90;;;11.27;;
37777;SDS011;23615;51.506;7.678;2022-08-19T08:40:30;12.75;;;11.02;;
37777;SDS011;23615;51.506;7.678;2022-08-19T08:43:09;11.40;;;9.45;;
37777;SDS011;23615;51.506;7.678;2022-08-19T08:45:52;12.85;;;10.10;;
37777;SDS011;23615;51.506;7.678;2022-08-19T08:48:38;15.75;;;9.60;;
37777;SDS011;23615;51.506;7.678;2022-08-19T08:51:12;12.07;;;9.90;;
37777;SDS011;23615;51.506;7.678;2022-08-19T08:53:43;11.70;;;9.10;;
37777;SDS011;23615;51.506;7.678;2022-08-19T08:56:10;12.05;;;8.50;;
37777;SDS011;23615;51.506;7.678;2022-08-19T09:01:19;9.95;;;8.73;;
37777;SDS011;23615;51.506;7.678;2022-08-19T09:03:45;9.93;;;8.88;;
37777;SDS011;23615;51.506;7.678;2022-08-19T09:06:18;12.05;;;8.40;;
37777;SDS011;23615;51.506;7.678;2022-08-19T09:09:17;11.85;;;9.45;;
37777;SDS011;23615;51.506;7.678;2022-08-19T09:17:14;13.57;;;10.02;;
37777;SDS011;23615;51.506;7.678;2022-08-19T09:19:49;11.63;;;9.30;;
37777;SDS011;23615;51.506;7.678;2022-08-19T09:22:29;10.57;;;9.07;;
37777;SDS011;23615;51.506;7.678;2022-08-19T09:24:54;12.25;;;11.00;;
37777;SDS011;23615;51.506;7.678;2022-08-19T09:27:20;14.13;;;9.40;;
37777;SDS011;23615;51.506;7.678;2022-08-19T09:29:49;12.50;;;9.13;;
37777;SDS011;23615;51.506;7.678;2022-08-19T09:32:14;10.45;;;8.40;;
37777;SDS011;23615;51.506;7.678;2022-08-19T09:34:40;7.40;;;6.60;;
37777;SDS011;23615;51.506;7.678;2022-08-19T09:37:06;7.22;;;5.60;;
37777;SDS011;23615;51.506;7.678;2022-08-19T09:39:31;7.97;;;6.65;;
37777;SDS011;23615;51.506;7.678;2022-08-19T09:41:57;9.75;;;7.97;;
37777;SDS011;23615;51.506;7.678;2022-08-19T09:44:22;5.30;;;4.82;;
37777;SDS011;23615;51.506;7.678;2022-08-19T09:46:48;11.50;;;9.32;;
37777;SDS011;23615;51.506;7.678;2022-08-19T09:49:14;10.23;;;9.05;;
37777;SDS011;23615;51.506;7.678;2022-08-19T09:51:42;10.68;;;7.93;;
37777;SDS011;23615;51.506;7.678;2022-08-19T09:54:07;10.32;;;8.27;;
37777;SDS011;23615;51.506;7.678;2022-08-19T09:56:33;10.73;;;8.70;;
37777;SDS011;23615;51.506;7.678;2022-08-19T09:58:58;8.95;;;6.18;;
37777;SDS011;23615;51.506;7.678;2022-08-19T10:01:26;4.90;;;4.50;;
37777;SDS011;23615;51.506;7.678;2022-08-19T10:03:53;9.20;;;6.28;;
37777;SDS011;23615;51.506;7.678;2022-08-19T10:06:24;8.73;;;6.70;;
37777;SDS011;23615;51.506;7.678;2022-08-19T10:08:54;7.70;;;6.63;;
37777;SDS011;23615;51.506;7.678;2022-08-19T10:11:19;10.45;;;8.57;;
37777;SDS011;23615;51.506;7.678;2022-08-19T10:13:45;12.07;;;10.43;;
37777;SDS011;23615;51.506;7.678;2022-08-19T10:16:13;12.80;;;10.55;;
37777;SDS011;23615;51.506;7.678;2022-08-19T10:18:41;11.70;;;9.98;;
37777;SDS011;23615;51.506;7.678;2022-08-19T10:21:12;10.98;;;9.98;;
37777;SDS011;23615;51.506;7.678;2022-08-19T10:23:42;13.00;;;10.02;;
37777;SDS011;23615;51.506;7.678;2022-08-19T10:26:13;11.77;;;10.63;;
37777;SDS011;23615;51.506;7.678;2022-08-19T10:28:40;12.52;;;11.13;;
37777;SDS011;23615;51.506;7.678;2022-08-19T10:31:06;18.52;;;16.73;;
37777;SDS011;23615;51.506;7.678;2022-08-19T10:33:39;13.02;;;11.13;;
37777;SDS011;23615;51.506;7.678;2022-08-19T10:36:07;12.77;;;11.18;;
37777;SDS011;23615;51.506;7.678;2022-08-19T10:38:40;10.05;;;8.65;;
37777;SDS011;23615;51.506;7.678;2022-08-19T10:41:13;7.53;;;6.93;;
37777;SDS011;23615;51.506;7.678;2022-08-19T10:43:40;8.73;;;7.57;;
37777;SDS011;23615;51.506;7.678;2022-08-19T10:46:09;9.35;;;8.38;;
37777;SDS011;23615;51.506;7.678;2022-08-19T10:48:36;9.80;;;7.88;;
37777;SDS011;23615;51.506;7.678;2022-08-19T10:51:02;8.52;;;7.38;;
37777;SDS011;23615;51.506;7.678;2022-08-19T10:53:47;5.85;;;5.22;;
37777;SDS011;23615;51.506;7.678;2022-08-19T10:56:13;6.68;;;5.88;;
37777;SDS011;23615;51.506;7.678;2022-08-19T10:58:56;8.10;;;7.30;;
37777;SDS011;23615;51.506;7.678;2022-08-19T11:01:23;9.98;;;8.98;;
37777;SDS011;23615;51.506;7.678;2022-08-19T11:03:49;7.47;;;6.72;;
37777;SDS011;23615;51.506;7.678;2022-08-19T11:06:14;9.38;;;6.35;;
37777;SDS011;23615;51.506;7.678;2022-08-19T11:08:41;7.70;;;6.90;;
37777;SDS011;23615;51.506;7.678;2022-08-19T11:11:07;6.10;;;5.60;;
37777;SDS011;23615;51.506;7.678;2022-08-19T11:13:34;8.52;;;6.60;;
37777;SDS011;23615;51.506;7.678;2022-08-19T11:16:06;7.75;;;7.00;;
37777;SDS011;23615;51.506;7.678;2022-08-19T11:18:35;10.90;;;9.63;;
37777;SDS011;23615;51.506;7.678;2022-08-19T11:21:10;8.95;;;8.05;;
37777;SDS011;23615;51.506;7.678;2022-08-19T11:23:36;10.32;;;7.07;;
37777;SDS011;23615;51.506;7.678;2022-08-19T11:26:02;7.70;;;6.45;;
37777;SDS011;23615;51.506;7.678;2022-08-19T11:28:28;8.70;;;7.60;;
37777;SDS011;23615;51.506;7.678;2022-08-19T11:30:53;7.97;;;6.93;;
37777;SDS011;23615;51.506;7.678;2022-08-19T11:33:18;8.82;;;6.40;;
37777;SDS011;23615;51.506;7.678;2022-08-19T11:35:53;7.35;;;6.68;;
37777;SDS011;23615;51.506;7.678;2022-08-19T11:38:21;8.23;;;7.47;;
37777;SDS011;23615;51.506;7.678;2022-08-19T11:40:53;9.25;;;6.53;;
37777;SDS011;23615;51.506;7.678;2022-08-19T11:43:20;8.82;;;7.97;;
37777;SDS011;23615;51.506;7.678;2022-08-19T11:45:45;8.52;;;7.60;;
37777;SDS011;23615;51.506;7.678;2022-08-19T11:48:13;8.38;;;6.97;;
37777;SDS011;23615;51.506;7.678;2022-08-19T11:50:38;8.20;;;7.50;;
37777;SDS011;23615;51.506;7.678;2022-08-19T11:53:08;7.55;;;6.78;;
37777;SDS011;23615;51.506;7.678;2022-08-19T11:55:36;7.03;;;6.28;;
37777;SDS011;23615;51.506;7.678;2022-08-19T11:58:05;8.80;;;7.88;;
37777;SDS011;23615;51.506;7.678;2022-08-19T12:00:31;9.65;;;8.00;;
37777;SDS011;23615;51.506;7.678;2022-08-19T12:02:59;7.13;;;6.43;;
37777;SDS011;23615;51.506;7.678;2022-08-19T12:05:24;7.22;;;6.63;;
37777;SDS011;23615;51.506;7.678;2022-08-19T12:07:49;6.40;;;5.80;;
37777;SDS011;23615;51.506;7.678;2022-08-19T12:10:14;5.40;;;4.90;;
37777;SDS011;23615;51.506;7.678;2022-08-19T12:12:40;5.13;;;4.63;;
37777;SDS011;23615;51.506;7.678;2022-08-19T12:15:07;5.85;;;4.55;;
37777;SDS011;23615;51.506;7.678;2022-08-19T12:17:34;6.28;;;5.45;;
37777;SDS011;23615;51.506;7.678;2022-08-19T12:19:59;5.43;;;4.82;;
37777;SDS011;23615;51.506;7.678;2022-08-19T12:22:25;7.50;;;5.80;;
37777;SDS011;23615;51.506;7.678;2022-08-19T12:24:50;8.63;;;6.40;;
37777;SDS011;23615;51.506;7.678;2022-08-19T12:27:17;6.85;;;6.05;;
37777;SDS011;23615;51.506;7.678;2022-08-19T12:29:43;7.45;;;5.43;;
37777;SDS011;23615;51.506;7.678;2022-08-19T12:32:08;8.30;;;5.85;;
37777;SDS011;23615;51.506;7.678;2022-08-19T12:34:34;8.75;;;7.25;;
37777;SDS011;23615;51.506;7.678;2022-08-19T12:37:01;7.13;;;6.43;;
37777;SDS011;23615;51.506;7.678;2022-08-19T12:39:29;8.15;;;5.72;;
37777;SDS011;23615;51.506;7.678;2022-08-19T12:41:56;5.57;;;4.35;;
37777;SDS011;23615;51.506;7.678;2022-08-19T12:44:22;7.05;;;5.00;;
37777;SDS011;23615;51.506;7.678;2022-08-19T12:46:48;6.80;;;5.68;;
37777;SDS011;23615;51.506;7.678;2022-08-19T12:49:13;5.53;;;4.68;;
37777;SDS011;23615;51.506;7.678;2022-08-19T12:51:40;9.20;;;6.15;;
37777;SDS011;23615;51.506;7.678;2022-08-19T12:54:06;9.13;;;7.40;;
37777;SDS011;23615;51.506;7.678;2022-08-19T12:56:31;15.32;;;7.85;;
37777;SDS011;23615;51.506;7.678;2022-08-19T12:59:00;8.27;;;6.72;;
37777;SDS011;23615;51.506;7.678;2022-08-19T13:01:26;7.45;;;6.75;;
37777;SDS011;23615;51.506;7.678;2022-08-19T13:03:52;8.48;;;6.53;;
37777;SDS011;23615;51.506;7.678;2022-08-19T13:06:18;8.43;;;5.72;;
37777;SDS011;23615;51.506;7.678;2022-08-19T13:08:43;7.63;;;6.28;;
37777;SDS011;23615;51.506;7.678;2022-08-19T13:11:13;7.63;;;5.90;;
37777;SDS011;23615;51.506;7.678;2022-08-19T13:13:40;9.52;;;7.55;;
37777;SDS011;23615;51.506;7.678;2022-08-19T13:16:07;6.35;;;5.75;;
37777;SDS011;23615;51.506;7.678;2022-08-19T13:18:35;4.90;;;4.50;;
37777;SDS011;23615;51.506;7.678;2022-08-19T13:21:04;6.78;;;6.18;;
37777;SDS011;23615;51.506;7.678;2022-08-19T13:23:31;8.32;;;7.20;;
37777;SDS011;23615;51.506;7.678;2022-08-19T13:25:57;6.53;;;5.93;;
37777;SDS011;23615;51.506;7.678;2022-08-19T13:28:23;7.47;;;6.60;;
37777;SDS011;23615;51.506;7.678;2022-08-19T13:30:49;7.55;;;6.90;;
37777;SDS011;23615;51.506;7.678;2022-08-19T13:33:33;8.55;;;7.55;;
37777;SDS011;23615;51.506;7.678;2022-08-19T13:35:59;10.63;;;8.43;;
37777;SDS011;23615;51.506;7.678;2022-08-19T13:38:26;11.93;;;8.13;;
37777;SDS011;23615;51.506;7.678;2022-08-19T13:40:53;11.40;;;9.68;;
37777;SDS011;23615;51.506;7.678;2022-08-19T13:43:20;8.40;;;7.60;;
37777;SDS011;23615;51.506;7.678;2022-08-19T13:45:47;9.50;;;8.05;;
37777;SDS011;23615;51.506;7.678;2022-08-19T13:48:13;8.25;;;7.55;;
37777;SDS011;23615;51.506;7.678;2022-08-19T13:50:42;9.88;;;8.90;;
37777;SDS011;23615;51.506;7.678;2022-08-19T13:53:10;8.32;;;7.45;;
37777;SDS011;23615;51.506;7.678;2022-08-19T13:55:37;8.50;;;7.47;;
37777;SDS011;23615;51.506;7.678;2022-08-19T13:58:04;8.95;;;7.95;;
37777;SDS011;23615;51.506;7.678;2022-08-19T14:00:31;7.53;;;6.80;;
37777;SDS011;23615;51.506;7.678;2022-08-19T14:02:59;7.45;;;6.68;;
37777;SDS011;23615;51.506;7.678;2022-08-19T14:05:25;8.27;;;6.80;;
37777;SDS011;23615;51.506;7.678;2022-08-19T14:07:52;6.72;;;6.07;;
37777;SDS011;23615;51.506;7.678;2022-08-19T14:10:18;8.65;;;7.88;;
37777;SDS011;23615;51.506;7.678;2022-08-19T14:12:44;7.90;;;7.18;;
37777;SDS011;23615;51.506;7.678;2022-08-19T14:15:10;7.55;;;6.40;;
37777;SDS011;23615;51.506;7.678;2022-08-19T14:17:37;6.20;;;5.60;;
37777;SDS011;23615;51.506;7.678;2022-08-19T14:20:07;6.32;;;5.85;;
37777;SDS011;23615;51.506;7.678;2022-08-19T14:22:37;7.55;;;6.82;;
37777;SDS011;23615;51.506;7.678;2022-08-19T14:25:05;7.10;;;6.50;;
37777;SDS011;23615;51.506;7.678;2022-08-19T14:27:33;9.13;;;5.97;;
37777;SDS011;23615;51.506;7.678;2022-08-19T14:29:59;4.68;;;4.28;;
37777;SDS011;23615;51.506;7.678;2022-08-19T14:32:24;6.10;;;5.50;;
37777;SDS011;23615;51.506;7.678;2022-08-19T14:34:52;5.00;;;4.50;;
37777;SDS011;23615;51.506;7.678;2022-08-19T14:37:18;6.38;;;4.55;;
37777;SDS011;23615;51.506;7.678;2022-08-19T14:39:43;4.90;;;4.47;;
37777;SDS011;23615;51.506;7.678;2022-08-19T14:42:10;5.35;;;4.93;;
37777;SDS011;23615;51.506;7.678;2022-08-19T14:44:36;4.38;;;3.97;;
37777;SDS011;23615;51.506;7.678;2022-08-19T14:47:02;4.85;;;4.30;;
37777;SDS011;23615;51.506;7.678;2022-08-19T14:49:28;5.15;;;4.75;;
37777;SDS011;23615;51.506;7.678;2022-08-19T14:51:53;5.22;;;4.65;;
37777;SDS011;23615;51.506;7.678;2022-08-19T14:54:18;7.70;;;4.55;;
37777;SDS011;23615;51.506;7.678;2022-08-19T14:56:44;5.38;;;4.88;;